createdAt,value
2023-03-04T00:01:08.875Z,11.20
2023-03-04T00:11:08.360Z,9.70
2023-03-04T00:21:08.010Z,9.80
2023-03-04T00:31:07.521Z,8.60
2023-03-04T00:41:07.130Z,8.70
2023-03-04T00:51:01.457Z,7.90
2023-03-04T01:01:01.140Z,8.00
2023-03-04T01:11:00.716Z,8.00
2023-03-04T01:21:00.397Z,7.50
2023-03-04T01:31:00.011Z,9.10
2023-03-04T01:40:59.831Z,8.20
2023-03-04T01:50:59.248Z,9.40
2023-03-04T02:00:59.085Z,9.50
2023-03-04T02:10:58.674Z,9.10
2023-03-04T02:20:58.163Z,8.00
2023-03-04T02:30:57.813Z,7.30
2023-03-04T02:40:57.434Z,6.50
2023-03-04T02:50:51.872Z,6.30
2023-03-04T03:00:51.621Z,5.90
2023-03-04T03:10:51.074Z,5.60
2023-03-04T03:20:51.121Z,6.10
2023-03-04T03:30:50.417Z,5.20
2023-03-04T03:40:50.304Z,6.20
2023-03-04T03:50:49.785Z,5.40
2023-03-04T04:00:49.315Z,6.40
2023-03-04T04:10:48.893Z,5.90
2023-03-04T04:20:48.708Z,6.60
2023-03-04T04:30:48.186Z,5.90
2023-03-04T04:40:48.015Z,5.60
2023-03-04T04:50:47.437Z,5.90
2023-03-04T05:00:41.666Z,5.60
2023-03-04T05:10:41.672Z,5.50
2023-03-04T05:20:41.109Z,5.60
2023-03-04T05:30:40.701Z,5.00
2023-03-04T05:40:40.212Z,4.70
2023-03-04T05:50:39.873Z,4.40
2023-03-04T06:00:39.495Z,3.50
2023-03-04T06:10:39.247Z,4.30
2023-03-04T06:20:38.744Z,4.70
2023-03-04T06:30:38.323Z,4.10
2023-03-04T06:40:38.112Z,3.90
2023-03-04T06:50:37.566Z,3.70
2023-03-04T07:00:37.248Z,3.60
2023-03-04T07:10:31.479Z,2.90
2023-03-04T07:20:31.828Z,3.70
2023-03-04T07:30:30.751Z,2.60
2023-03-04T07:40:30.413Z,3.40
2023-03-04T07:50:30.027Z,3.10
2023-03-04T08:00:29.691Z,3.30
2023-03-04T08:10:29.295Z,2.40
2023-03-04T08:20:29.089Z,2.50
2023-03-04T08:30:28.908Z,2.30
2023-03-04T08:40:28.234Z,2.50
2023-03-04T08:50:27.905Z,2.60
2023-03-04T09:00:27.461Z,3.10
2023-03-04T09:10:22.638Z,3.30
2023-03-04T09:20:21.708Z,2.90
2023-03-04T09:30:21.460Z,2.30
2023-03-04T09:40:21.103Z,2.90
2023-03-04T09:50:20.576Z,2.80
2023-03-04T10:00:20.641Z,2.70
2023-03-04T10:10:20.034Z,2.80
2023-03-04T10:20:19.521Z,2.40
2023-03-04T10:30:19.204Z,2.60
2023-03-04T10:40:18.939Z,3.30
2023-03-04T10:50:18.621Z,8.30
2023-03-04T11:00:18.083Z,8.30
2023-03-04T11:10:17.674Z,9.60
2023-03-04T11:20:17.480Z,9.00
2023-03-04T11:30:13.471Z,7.60
2023-03-04T11:40:16.232Z,8.20
2023-03-04T11:50:10.923Z,7.90
2023-03-04T12:00:10.544Z,8.10
2023-03-04T12:10:10.343Z,8.00
2023-03-04T12:20:09.840Z,8.30
2023-03-04T12:30:09.479Z,6.80
2023-03-04T12:40:09.064Z,8.40
2023-03-04T12:50:09.017Z,8.80
2023-03-04T13:00:08.336Z,7.60
2023-03-04T13:10:08.047Z,7.00
2023-03-04T13:20:07.926Z,8.00
2023-03-04T13:30:07.253Z,8.70
2023-03-04T13:40:06.871Z,7.50
2023-03-04T13:50:06.554Z,6.40
2023-03-04T14:00:06.155Z,6.70
2023-03-04T14:10:06.110Z,5.90
2023-03-04T14:20:05.478Z,6.00
2023-03-04T14:30:05.091Z,5.90
2023-03-04T14:39:59.723Z,5.00
2023-03-04T14:49:59.382Z,5.80
2023-03-04T14:59:59.187Z,5.40
2023-03-04T15:09:58.626Z,10.00
2023-03-04T15:19:58.318Z,9.80
2023-03-04T15:29:58.071Z,9.90
2023-03-04T15:39:57.633Z,8.50
2023-03-04T15:49:57.234Z,8.50
2023-03-04T15:59:57.119Z,7.80
2023-03-04T16:09:56.497Z,6.60
2023-03-04T16:19:56.156Z,6.90
2023-03-04T16:29:55.740Z,5.50
2023-03-04T16:39:55.849Z,5.40
2023-03-04T16:49:55.251Z,4.10
2023-03-04T16:59:59.923Z,4.30
2023-03-04T17:09:54.437Z,3.40
2023-03-04T17:19:54.408Z,3.00
2023-03-04T17:29:53.546Z,3.00
2023-03-04T17:39:48.301Z,3.00
2023-03-04T17:49:47.683Z,3.00
2023-03-04T17:59:47.519Z,3.70
2023-03-04T18:09:46.971Z,3.00
2023-03-04T18:19:46.789Z,3.20
2023-03-04T18:29:46.540Z,3.00
2023-03-04T18:39:45.897Z,3.60
2023-03-04T18:49:45.580Z,3.10
2023-03-04T18:59:45.186Z,3.20
2023-03-04T19:09:44.799Z,2.30
2023-03-04T19:19:50.147Z,2.50
2023-03-04T19:29:44.247Z,2.70
2023-03-04T19:39:43.718Z,2.60
2023-03-04T19:49:43.341Z,2.60
2023-03-04T19:59:44.536Z,2.30
2023-03-04T20:09:44.631Z,3.00
2023-03-04T20:19:42.713Z,2.40
2023-03-04T20:29:36.834Z,2.40
2023-03-04T20:39:36.492Z,2.70
2023-03-04T20:49:36.086Z,2.70
2023-03-04T20:59:35.735Z,2.70
2023-03-04T21:09:35.327Z,3.10
2023-03-04T21:19:34.969Z,2.50
2023-03-04T21:29:34.575Z,2.50
2023-03-04T21:39:34.246Z,2.90
2023-03-04T21:49:33.990Z,2.70
2023-03-04T21:59:33.970Z,2.40
2023-03-04T22:09:33.308Z,3.40
2023-03-04T22:19:32.775Z,2.40
2023-03-04T22:29:32.422Z,2.50
2023-03-04T22:39:31.991Z,2.50
2023-03-04T22:49:26.368Z,2.80
2023-03-04T22:59:25.967Z,2.30
2023-03-04T23:09:25.709Z,2.50
2023-03-04T23:19:25.244Z,2.70
2023-03-04T23:29:24.916Z,2.30
2023-03-04T23:39:24.464Z,2.40
2023-03-04T23:49:24.308Z,2.00
2023-03-04T23:59:23.975Z,2.30
